sensor_id;sensor_type;location;lat;lon;timestamp;temperature;humidity
19920;DHT22;10122;50.074;19.920;2024-01-11T00:00:07;-7.00;99.90
19920;DHT22;10122;50.074;19.920;2024-01-11T00:02:33;-7.00;99.90
19920;DHT22;10122;50.074;19.920;2024-01-11T00:04:59;-6.90;99.90
19920;DHT22;10122;50.074;19.920;2024-01-11T00:07:24;-6.90;99.90
19920;DHT22;10122;50.074;19.920;2024-01-11T00:09:50;-6.90;99.90
19920;DHT22;10122;50.074;19.920;2024-01-11T00:12:15;-6.90;99.90
19920;DHT22;10122;50.074;19.920;2024-01-11T00:14:41;-6.90;99.90
19920;DHT22;10122;50.074;19.920;2024-01-11T00:17:07;-6.90;99.90
19920;DHT22;10122;50.074;19.920;2024-01-11T00:19:32;-6.80;99.90
19920;DHT22;10122;50.074;19.920;2024-01-11T00:21:58;-6.90;99.90
19920;DHT22;10122;50.074;19.920;2024-01-11T00:24:24;-6.80;99.90
19920;DHT22;10122;50.074;19.920;2024-01-11T00:26:49;-6.80;99.90
19920;DHT22;10122;50.074;19.920;2024-01-11T00:29:15;-6.80;99.90
19920;DHT22;10122;50.074;19.920;2024-01-11T00:31:41;-6.80;99.90
19920;DHT22;10122;50.074;19.920;2024-01-11T00:34:06;-6.80;99.90
19920;DHT22;10122;50.074;19.920;2024-01-11T00:36:32;-6.80;99.90
19920;DHT22;10122;50.074;19.920;2024-01-11T00:38:58;-6.80;99.90
19920;DHT22;10122;50.074;19.920;2024-01-11T00:41:25;-6.80;99.90
19920;DHT22;10122;50.074;19.920;2024-01-11T00:43:50;-6.80;99.90
19920;DHT22;10122;50.074;19.920;2024-01-11T00:46:16;-6.80;99.90
19920;DHT22;10122;50.074;19.920;2024-01-11T00:48:42;-6.80;99.90
19920;DHT22;10122;50.074;19.920;2024-01-11T00:51:08;-6.80;99.90
19920;DHT22;10122;50.074;19.920;2024-01-11T00:53:33;-6.90;99.90
19920;DHT22;10122;50.074;19.920;2024-01-11T00:56:00;-6.90;99.90
19920;DHT22;10122;50.074;19.920;2024-01-11T00:58:26;-6.80;99.90
19920;DHT22;10122;50.074;19.920;2024-01-11T01:00:53;-6.80;99.90
19920;DHT22;10122;50.074;19.920;2024-01-11T01:03:22;-6.70;99.90
19920;DHT22;10122;50.074;19.920;2024-01-11T01:05:47;-6.70;99.90
19920;DHT22;10122;50.074;19.920;2024-01-11T01:08:13;-6.80;99.90
19920;DHT22;10122;50.074;19.920;2024-01-11T01:10:39;-6.80;99.90
19920;DHT22;10122;50.074;19.920;2024-01-11T01:13:05;-6.80;99.90
19920;DHT22;10122;50.074;19.920;2024-01-11T01:15:31;-6.90;99.90
19920;DHT22;10122;50.074;19.920;2024-01-11T01:17:57;-6.90;99.90
19920;DHT22;10122;50.074;19.920;2024-01-11T01:20:23;-6.90;99.90
19920;DHT22;10122;50.074;19.920;2024-01-11T01:22:49;-6.90;99.90
19920;DHT22;10122;50.074;19.920;2024-01-11T01:25:15;-6.90;99.90
19920;DHT22;10122;50.074;19.920;2024-01-11T01:27:41;-6.90;99.90
19920;DHT22;10122;50.074;19.920;2024-01-11T01:30:07;-6.90;99.90
19920;DHT22;10122;50.074;19.920;2024-01-11T01:32:34;-6.90;99.90
19920;DHT22;10122;50.074;19.920;2024-01-11T01:35:00;-6.90;99.90
19920;DHT22;10122;50.074;19.920;2024-01-11T01:37:25;-6.90;99.90
19920;DHT22;10122;50.074;19.920;2024-01-11T01:39:51;-6.90;99.90
19920;DHT22;10122;50.074;19.920;2024-01-11T01:42:17;-6.90;99.90
19920;DHT22;10122;50.074;19.920;2024-01-11T01:44:43;-6.90;99.90
19920;DHT22;10122;50.074;19.920;2024-01-11T01:47:09;-6.90;99.90
19920;DHT22;10122;50.074;19.920;2024-01-11T01:49:36;-6.90;99.90
19920;DHT22;10122;50.074;19.920;2024-01-11T01:52:03;-6.90;99.90
19920;DHT22;10122;50.074;19.920;2024-01-11T01:54:31;-6.90;99.90
19920;DHT22;10122;50.074;19.920;2024-01-11T01:56:58;-6.90;99.90
19920;DHT22;10122;50.074;19.920;2024-01-11T01:59:25;-6.90;99.90
19920;DHT22;10122;50.074;19.920;2024-01-11T02:01:51;-6.90;99.90
19920;DHT22;10122;50.074;19.920;2024-01-11T02:04:18;-6.90;99.90
19920;DHT22;10122;50.074;19.920;2024-01-11T02:06:46;-6.90;99.90
19920;DHT22;10122;50.074;19.920;2024-01-11T02:09:14;-6.80;99.90
19920;DHT22;10122;50.074;19.920;2024-01-11T02:11:44;-6.90;99.90
19920;DHT22;10122;50.074;19.920;2024-01-11T02:14:10;-6.90;99.90
19920;DHT22;10122;50.074;19.920;2024-01-11T02:16:36;-6.90;99.90
19920;DHT22;10122;50.074;19.920;2024-01-11T02:19:21;-6.90;99.90
19920;DHT22;10122;50.074;19.920;2024-01-11T02:21:49;-6.90;99.90
19920;DHT22;10122;50.074;19.920;2024-01-11T02:24:19;-6.80;99.90
19920;DHT22;10122;50.074;19.920;2024-01-11T02:27:04;-6.80;99.90
19920;DHT22;10122;50.074;19.920;2024-01-11T02:29:31;-6.80;99.90
19920;DHT22;10122;50.074;19.920;2024-01-11T02:31:57;-6.80;99.90
19920;DHT22;10122;50.074;19.920;2024-01-11T02:34:24;-6.70;99.90
19920;DHT22;10122;50.074;19.920;2024-01-11T02:36:51;-6.70;99.90
19920;DHT22;10122;50.074;19.920;2024-01-11T02:39:19;-6.60;99.90
19920;DHT22;10122;50.074;19.920;2024-01-11T02:41:45;-6.50;99.90
19920;DHT22;10122;50.074;19.920;2024-01-11T02:44:11;-6.40;99.90
19920;DHT22;10122;50.074;19.920;2024-01-11T02:46:36;-6.30;99.90
19920;DHT22;10122;50.074;19.920;2024-01-11T02:49:02;-6.30;99.90
19920;DHT22;10122;50.074;19.920;2024-01-11T02:51:28;-6.40;99.90
19920;DHT22;10122;50.074;19.920;2024-01-11T02:53:54;-6.40;99.90
19920;DHT22;10122;50.074;19.920;2024-01-11T02:56:19;-6.50;99.90
19920;DHT22;10122;50.074;19.920;2024-01-11T02:58:45;-6.50;99.90
19920;DHT22;10122;50.074;19.920;2024-01-11T03:01:10;-6.60;99.90
19920;DHT22;10122;50.074;19.920;2024-01-11T03:03:36;-6.50;99.90
19920;DHT22;10122;50.074;19.920;2024-01-11T03:06:02;-6.50;99.90
19920;DHT22;10122;50.074;19.920;2024-01-11T03:08:28;-6.50;99.90
19920;DHT22;10122;50.074;19.920;2024-01-11T03:10:54;-6.40;99.90
19920;DHT22;10122;50.074;19.920;2024-01-11T03:13:20;-6.30;99.90
19920;DHT22;10122;50.074;19.920;2024-01-11T03:15:46;-6.20;99.90
19920;DHT22;10122;50.074;19.920;2024-01-11T03:18:12;-6.10;99.90
19920;DHT22;10122;50.074;19.920;2024-01-11T03:20:37;-6.00;99.90
19920;DHT22;10122;50.074;19.920;2024-01-11T03:23:03;-5.90;99.90
19920;DHT22;10122;50.074;19.920;2024-01-11T03:25:31;-5.80;99.90
19920;DHT22;10122;50.074;19.920;2024-01-11T03:28:00;-5.70;99.90
19920;DHT22;10122;50.074;19.920;2024-01-11T03:30:26;-5.70;99.90
19920;DHT22;10122;50.074;19.920;2024-01-11T03:32:51;-5.80;99.90
19920;DHT22;10122;50.074;19.920;2024-01-11T03:35:18;-6.00;99.90
19920;DHT22;10122;50.074;19.920;2024-01-11T03:37:44;-6.10;99.90
19920;DHT22;10122;50.074;19.920;2024-01-11T03:40:10;-6.00;99.90
19920;DHT22;10122;50.074;19.920;2024-01-11T03:42:36;-5.90;99.90
19920;DHT22;10122;50.074;19.920;2024-01-11T03:45:02;-5.90;99.90
19920;DHT22;10122;50.074;19.920;2024-01-11T03:47:28;-6.00;99.90
19920;DHT22;10122;50.074;19.920;2024-01-11T03:49:54;-6.00;99.90
19920;DHT22;10122;50.074;19.920;2024-01-11T03:52:20;-6.10;99.90
19920;DHT22;10122;50.074;19.920;2024-01-11T03:54:45;-6.10;99.90
19920;DHT22;10122;50.074;19.920;2024-01-11T03:57:11;-6.10;99.90
19920;DHT22;10122;50.074;19.920;2024-01-11T03:59:37;-6.20;99.90
19920;DHT22;10122;50.074;19.920;2024-01-11T04:02:03;-6.30;99.90
19920;DHT22;10122;50.074;19.920;2024-01-11T04:04:29;-6.40;99.90
19920;DHT22;10122;50.074;19.920;2024-01-11T04:06:55;-6.50;99.90
19920;DHT22;10122;50.074;19.920;2024-01-11T04:09:20;-6.60;99.90
19920;DHT22;10122;50.074;19.920;2024-01-11T04:11:46;-6.40;99.90
19920;DHT22;10122;50.074;19.920;2024-01-11T04:14:12;-6.40;99.90
19920;DHT22;10122;50.074;19.920;2024-01-11T04:16:44;-6.50;99.90
19920;DHT22;10122;50.074;19.920;2024-01-11T04:19:10;-6.50;99.90
19920;DHT22;10122;50.074;19.920;2024-01-11T04:21:36;-6.50;99.90
19920;DHT22;10122;50.074;19.920;2024-01-11T04:24:04;-6.50;99.90
19920;DHT22;10122;50.074;19.920;2024-01-11T04:26:31;-6.60;99.90
19920;DHT22;10122;50.074;19.920;2024-01-11T04:28:57;-6.70;99.90
19920;DHT22;10122;50.074;19.920;2024-01-11T04:31:25;-6.70;99.90
19920;DHT22;10122;50.074;19.920;2024-01-11T04:33:51;-6.80;99.90
19920;DHT22;10122;50.074;19.920;2024-01-11T04:36:17;-6.90;99.90
19920;DHT22;10122;50.074;19.920;2024-01-11T04:38:42;-6.90;99.90
19920;DHT22;10122;50.074;19.920;2024-01-11T04:41:13;-7.00;99.90
19920;DHT22;10122;50.074;19.920;2024-01-11T04:43:43;-7.00;99.90
19920;DHT22;10122;50.074;19.920;2024-01-11T04:46:19;-6.90;99.90
19920;DHT22;10122;50.074;19.920;2024-01-11T04:48:45;-6.90;99.90
19920;DHT22;10122;50.074;19.920;2024-01-11T04:51:15;-6.90;99.90
19920;DHT22;10122;50.074;19.920;2024-01-11T04:53:43;-6.90;99.90
19920;DHT22;10122;50.074;19.920;2024-01-11T04:56:11;-6.80;99.90
19920;DHT22;10122;50.074;19.920;2024-01-11T04:58:39;-6.90;99.90
19920;DHT22;10122;50.074;19.920;2024-01-11T05:01:05;-6.80;99.90
19920;DHT22;10122;50.074;19.920;2024-01-11T05:03:32;-6.60;99.90
19920;DHT22;10122;50.074;19.920;2024-01-11T05:05:58;-6.60;99.90
19920;DHT22;10122;50.074;19.920;2024-01-11T05:08:25;-6.60;99.90
19920;DHT22;10122;50.074;19.920;2024-01-11T05:10:51;-6.60;99.90
19920;DHT22;10122;50.074;19.920;2024-01-11T05:13:17;-6.50;99.90
19920;DHT22;10122;50.074;19.920;2024-01-11T05:15:43;-6.40;99.90
19920;DHT22;10122;50.074;19.920;2024-01-11T05:18:09;-6.30;99.90
19920;DHT22;10122;50.074;19.920;2024-01-11T05:20:36;-6.20;99.90
19920;DHT22;10122;50.074;19.920;2024-01-11T05:23:01;-6.10;99.90
19920;DHT22;10122;50.074;19.920;2024-01-11T05:25:27;-6.00;99.90
19920;DHT22;10122;50.074;19.920;2024-01-11T05:27:53;-5.90;99.90
19920;DHT22;10122;50.074;19.920;2024-01-11T05:30:18;-5.90;99.90
19920;DHT22;10122;50.074;19.920;2024-01-11T05:32:44;-6.00;99.90
19920;DHT22;10122;50.074;19.920;2024-01-11T05:35:10;-6.10;99.90
19920;DHT22;10122;50.074;19.920;2024-01-11T05:37:36;-6.30;99.90
19920;DHT22;10122;50.074;19.920;2024-01-11T05:40:02;-6.50;99.90
19920;DHT22;10122;50.074;19.920;2024-01-11T05:42:28;-6.40;99.90
19920;DHT22;10122;50.074;19.920;2024-01-11T05:44:54;-6.40;99.90
19920;DHT22;10122;50.074;19.920;2024-01-11T05:47:19;-6.40;99.90
19920;DHT22;10122;50.074;19.920;2024-01-11T05:49:45;-6.30;99.90
19920;DHT22;10122;50.074;19.920;2024-01-11T05:52:11;-6.30;99.90
19920;DHT22;10122;50.074;19.920;2024-01-11T05:54:37;-6.10;99.90
19920;DHT22;10122;50.074;19.920;2024-01-11T05:57:02;-6.10;99.90
19920;DHT22;10122;50.074;19.920;2024-01-11T05:59:28;-6.00;99.90
19920;DHT22;10122;50.074;19.920;2024-01-11T06:01:54;-5.90;99.90
19920;DHT22;10122;50.074;19.920;2024-01-11T06:04:19;-5.80;99.90
19920;DHT22;10122;50.074;19.920;2024-01-11T06:06:45;-5.60;99.90
19920;DHT22;10122;50.074;19.920;2024-01-11T06:09:11;-5.60;99.90
19920;DHT22;10122;50.074;19.920;2024-01-11T06:11:37;-5.60;99.90
19920;DHT22;10122;50.074;19.920;2024-01-11T06:14:02;-5.60;99.90
19920;DHT22;10122;50.074;19.920;2024-01-11T06:16:28;-5.60;99.90
19920;DHT22;10122;50.074;19.920;2024-01-11T06:18:54;-5.70;99.90
19920;DHT22;10122;50.074;19.920;2024-01-11T06:21:20;-5.70;99.90
19920;DHT22;10122;50.074;19.920;2024-01-11T06:23:45;-5.70;99.90
19920;DHT22;10122;50.074;19.920;2024-01-11T06:26:11;-5.70;99.90
19920;DHT22;10122;50.074;19.920;2024-01-11T06:28:37;-5.60;99.90
19920;DHT22;10122;50.074;19.920;2024-01-11T06:31:02;-5.60;99.90
19920;DHT22;10122;50.074;19.920;2024-01-11T06:33:29;-5.50;99.90
19920;DHT22;10122;50.074;19.920;2024-01-11T06:35:54;-5.50;99.90
19920;DHT22;10122;50.074;19.920;2024-01-11T06:38:21;-5.30;99.90
19920;DHT22;10122;50.074;19.920;2024-01-11T06:40:47;-5.20;99.90
19920;DHT22;10122;50.074;19.920;2024-01-11T06:43:14;-5.10;99.90
19920;DHT22;10122;50.074;19.920;2024-01-11T06:45:40;-5.10;99.90
19920;DHT22;10122;50.074;19.920;2024-01-11T06:48:06;-5.10;99.90
19920;DHT22;10122;50.074;19.920;2024-01-11T06:50:32;-5.10;99.90
19920;DHT22;10122;50.074;19.920;2024-01-11T06:52:58;-5.20;99.90
19920;DHT22;10122;50.074;19.920;2024-01-11T06:55:23;-5.20;99.90
19920;DHT22;10122;50.074;19.920;2024-01-11T06:57:49;-5.20;99.90
19920;DHT22;10122;50.074;19.920;2024-01-11T07:00:15;-5.20;99.90
19920;DHT22;10122;50.074;19.920;2024-01-11T07:02:41;-5.20;99.90
19920;DHT22;10122;50.074;19.920;2024-01-11T07:05:07;-5.10;99.90
19920;DHT22;10122;50.074;19.920;2024-01-11T07:07:33;-5.00;99.90
19920;DHT22;10122;50.074;19.920;2024-01-11T07:09:59;-4.90;99.90
19920;DHT22;10122;50.074;19.920;2024-01-11T07:12:25;-4.80;99.90
19920;DHT22;10122;50.074;19.920;2024-01-11T07:14:53;-4.60;99.90
19920;DHT22;10122;50.074;19.920;2024-01-11T07:17:19;-4.40;99.90
19920;DHT22;10122;50.074;19.920;2024-01-11T07:19:45;-4.20;99.90
19920;DHT22;10122;50.074;19.920;2024-01-11T07:22:10;-4.10;99.90
19920;DHT22;10122;50.074;19.920;2024-01-11T07:24:37;-4.00;99.90
19920;DHT22;10122;50.074;19.920;2024-01-11T07:27:06;-3.90;99.90
19920;DHT22;10122;50.074;19.920;2024-01-11T07:29:33;-3.90;99.90
19920;DHT22;10122;50.074;19.920;2024-01-11T07:31:59;-3.90;99.90
19920;DHT22;10122;50.074;19.920;2024-01-11T07:34:25;-3.90;99.90
19920;DHT22;10122;50.074;19.920;2024-01-11T07:36:52;-3.90;99.90
19920;DHT22;10122;50.074;19.920;2024-01-11T07:39:18;-3.80;99.90
19920;DHT22;10122;50.074;19.920;2024-01-11T07:41:43;-3.70;99.90
19920;DHT22;10122;50.074;19.920;2024-01-11T07:44:09;-3.60;99.90
19920;DHT22;10122;50.074;19.920;2024-01-11T07:46:35;-3.50;99.90
19920;DHT22;10122;50.074;19.920;2024-01-11T07:49:04;-3.40;99.90
19920;DHT22;10122;50.074;19.920;2024-01-11T07:51:30;-3.40;99.90
19920;DHT22;10122;50.074;19.920;2024-01-11T07:53:56;-3.20;99.90
19920;DHT22;10122;50.074;19.920;2024-01-11T07:56:22;-3.00;99.90
19920;DHT22;10122;50.074;19.920;2024-01-11T07:58:48;-2.60;99.90
19920;DHT22;10122;50.074;19.920;2024-01-11T08:01:15;-2.20;99.90
19920;DHT22;10122;50.074;19.920;2024-01-11T08:03:41;-1.80;99.90
19920;DHT22;10122;50.074;19.920;2024-01-11T08:06:10;-1.50;99.90
19920;DHT22;10122;50.074;19.920;2024-01-11T08:08:36;-1.30;99.90
19920;DHT22;10122;50.074;19.920;2024-01-11T08:11:04;-1.10;99.90
19920;DHT22;10122;50.074;19.920;2024-01-11T08:13:30;-0.90;99.90
19920;DHT22;10122;50.074;19.920;2024-01-11T08:15:57;-0.80;99.90
19920;DHT22;10122;50.074;19.920;2024-01-11T08:18:23;-0.60;99.90
19920;DHT22;10122;50.074;19.920;2024-01-11T08:20:49;-0.40;99.90
19920;DHT22;10122;50.074;19.920;2024-01-11T08:23:15;-0.30;99.90
19920;DHT22;10122;50.074;19.920;2024-01-11T08:25:41;-0.20;99.90
19920;DHT22;10122;50.074;19.920;2024-01-11T08:28:07;0.00;99.90
19920;DHT22;10122;50.074;19.920;2024-01-11T08:30:33;0.10;99.90
19920;DHT22;10122;50.074;19.920;2024-01-11T08:32:58;0.10;99.90
19920;DHT22;10122;50.074;19.920;2024-01-11T08:35:24;0.10;99.90
19920;DHT22;10122;50.074;19.920;2024-01-11T08:37:50;0.10;99.90
19920;DHT22;10122;50.074;19.920;2024-01-11T08:40:16;0.10;99.90
19920;DHT22;10122;50.074;19.920;2024-01-11T08:42:41;0.00;99.90
19920;DHT22;10122;50.074;19.920;2024-01-11T08:45:08;-0.10;99.90
19920;DHT22;10122;50.074;19.920;2024-01-11T08:47:34;-0.20;99.90
19920;DHT22;10122;50.074;19.920;2024-01-11T08:50:00;-0.20;99.90
19920;DHT22;10122;50.074;19.920;2024-01-11T08:52:26;-0.20;99.90
19920;DHT22;10122;50.074;19.920;2024-01-11T08:54:52;-0.20;99.90
19920;DHT22;10122;50.074;19.920;2024-01-11T08:57:17;-0.30;99.90
19920;DHT22;10122;50.074;19.920;2024-01-11T08:59:43;-0.30;99.90
19920;DHT22;10122;50.074;19.920;2024-01-11T09:02:09;-0.30;99.90
19920;DHT22;10122;50.074;19.920;2024-01-11T09:04:36;-0.30;99.90
19920;DHT22;10122;50.074;19.920;2024-01-11T09:07:02;-0.30;99.90
19920;DHT22;10122;50.074;19.920;2024-01-11T09:09:28;-0.30;99.90
19920;DHT22;10122;50.074;19.920;2024-01-11T09:11:53;-0.30;99.90
19920;DHT22;10122;50.074;19.920;2024-01-11T09:14:19;-0.30;99.90
19920;DHT22;10122;50.074;19.920;2024-01-11T09:16:44;-0.30;99.90
19920;DHT22;10122;50.074;19.920;2024-01-11T09:19:11;-0.30;99.90
19920;DHT22;10122;50.074;19.920;2024-01-11T09:21:37;-0.30;99.90
19920;DHT22;10122;50.074;19.920;2024-01-11T09:24:03;-0.30;99.90
19920;DHT22;10122;50.074;19.920;2024-01-11T09:26:29;-0.20;99.90
19920;DHT22;10122;50.074;19.920;2024-01-11T09:28:55;-0.20;99.90
19920;DHT22;10122;50.074;19.920;2024-01-11T09:31:21;-0.20;99.90
19920;DHT22;10122;50.074;19.920;2024-01-11T09:33:46;-0.20;99.90
19920;DHT22;10122;50.074;19.920;2024-01-11T09:36:13;-0.10;99.90
19920;DHT22;10122;50.074;19.920;2024-01-11T09:38:39;-0.10;99.90
19920;DHT22;10122;50.074;19.920;2024-01-11T09:41:09;0.00;99.90
19920;DHT22;10122;50.074;19.920;2024-01-11T09:43:36;0.10;99.90
19920;DHT22;10122;50.074;19.920;2024-01-11T09:46:04;0.20;99.90
19920;DHT22;10122;50.074;19.920;2024-01-11T09:48:33;0.20;99.90
19920;DHT22;10122;50.074;19.920;2024-01-11T09:51:03;0.30;99.90
19920;DHT22;10122;50.074;19.920;2024-01-11T09:53:33;0.30;99.90
19920;DHT22;10122;50.074;19.920;2024-01-11T09:55:59;0.40;99.90
19920;DHT22;10122;50.074;19.920;2024-01-11T09:58:26;0.50;99.90
19920;DHT22;10122;50.074;19.920;2024-01-11T10:00:56;0.50;99.90
19920;DHT22;10122;50.074;19.920;2024-01-11T10:03:25;0.50;99.90
19920;DHT22;10122;50.074;19.920;2024-01-11T10:05:54;0.60;99.90
19920;DHT22;10122;50.074;19.920;2024-01-11T10:08:22;0.60;99.90
19920;DHT22;10122;50.074;19.920;2024-01-11T10:10:48;0.60;99.90
19920;DHT22;10122;50.074;19.920;2024-01-11T10:13:15;0.70;99.90
19920;DHT22;10122;50.074;19.920;2024-01-11T10:15:42;0.70;99.90
19920;DHT22;10122;50.074;19.920;2024-01-11T10:18:08;0.70;99.90
19920;DHT22;10122;50.074;19.920;2024-01-11T10:20:34;0.70;99.90
19920;DHT22;10122;50.074;19.920;2024-01-11T10:22:59;0.70;99.90
19920;DHT22;10122;50.074;19.920;2024-01-11T10:25:26;0.70;99.90
19920;DHT22;10122;50.074;19.920;2024-01-11T10:27:52;0.70;99.90
19920;DHT22;10122;50.074;19.920;2024-01-11T10:30:18;0.70;99.90
19920;DHT22;10122;50.074;19.920;2024-01-11T10:32:46;0.70;99.90
19920;DHT22;10122;50.074;19.920;2024-01-11T10:35:13;0.70;99.90
19920;DHT22;10122;50.074;19.920;2024-01-11T10:37:39;0.70;99.90
19920;DHT22;10122;50.074;19.920;2024-01-11T10:40:08;0.60;99.90
19920;DHT22;10122;50.074;19.920;2024-01-11T10:42:47;0.60;99.90
19920;DHT22;10122;50.074;19.920;2024-01-11T10:45:16;0.60;99.90
19920;DHT22;10122;50.074;19.920;2024-01-11T10:47:54;0.60;99.90
19920;DHT22;10122;50.074;19.920;2024-01-11T10:50:23;0.60;99.90
19920;DHT22;10122;50.074;19.920;2024-01-11T10:53:16;0.60;99.90
19920;DHT22;10122;50.074;19.920;2024-01-11T10:55:46;0.60;99.90
19920;DHT22;10122;50.074;19.920;2024-01-11T10:58:13;0.60;99.90
19920;DHT22;10122;50.074;19.920;2024-01-11T11:00:41;0.60;99.90
19920;DHT22;10122;50.074;19.920;2024-01-11T11:03:07;0.60;99.90
19920;DHT22;10122;50.074;19.920;2024-01-11T11:05:37;0.60;99.90
19920;DHT22;10122;50.074;19.920;2024-01-11T11:08:04;0.60;99.90
19920;DHT22;10122;50.074;19.920;2024-01-11T11:10:33;0.60;99.90
19920;DHT22;10122;50.074;19.920;2024-01-11T11:13:00;0.60;99.90
19920;DHT22;10122;50.074;19.920;2024-01-11T11:15:29;0.60;99.90
19920;DHT22;10122;50.074;19.920;2024-01-11T11:17:55;0.60;99.90
19920;DHT22;10122;50.074;19.920;2024-01-11T11:20:21;0.60;99.90
19920;DHT22;10122;50.074;19.920;2024-01-11T11:23:06;0.60;99.90
19920;DHT22;10122;50.074;19.920;2024-01-11T11:25:32;0.60;99.90
19920;DHT22;10122;50.074;19.920;2024-01-11T11:27:58;0.60;99.90
19920;DHT22;10122;50.074;19.920;2024-01-11T11:30:27;0.60;99.90
19920;DHT22;10122;50.074;19.920;2024-01-11T11:32:54;0.50;99.90
19920;DHT22;10122;50.074;19.920;2024-01-11T11:35:23;0.60;99.90
19920;DHT22;10122;50.074;19.920;2024-01-11T11:37:48;0.50;99.90
19920;DHT22;10122;50.074;19.920;2024-01-11T11:40:18;0.50;99.90
19920;DHT22;10122;50.074;19.920;2024-01-11T11:42:46;0.50;99.90
19920;DHT22;10122;50.074;19.920;2024-01-11T11:45:11;0.50;99.90
19920;DHT22;10122;50.074;19.920;2024-01-11T11:47:37;0.50;99.90
19920;DHT22;10122;50.074;19.920;2024-01-11T11:50:10;0.50;99.90
19920;DHT22;10122;50.074;19.920;2024-01-11T11:52:40;0.50;99.90
19920;DHT22;10122;50.074;19.920;2024-01-11T11:55:08;0.50;99.90
19920;DHT22;10122;50.074;19.920;2024-01-11T11:57:34;0.60;99.90
19920;DHT22;10122;50.074;19.920;2024-01-11T12:00:00;0.60;99.90
19920;DHT22;10122;50.074;19.920;2024-01-11T12:02:32;0.60;99.90
19920;DHT22;10122;50.074;19.920;2024-01-11T12:04:58;0.60;99.90
19920;DHT22;10122;50.074;19.920;2024-01-11T12:07:24;0.60;99.90
19920;DHT22;10122;50.074;19.920;2024-01-11T12:09:51;0.60;99.90
19920;DHT22;10122;50.074;19.920;2024-01-11T12:12:18;0.70;99.90
19920;DHT22;10122;50.074;19.920;2024-01-11T12:14:46;0.80;99.90
19920;DHT22;10122;50.074;19.920;2024-01-11T12:17:13;0.80;99.90
19920;DHT22;10122;50.074;19.920;2024-01-11T12:19:38;0.80;99.90
19920;DHT22;10122;50.074;19.920;2024-01-11T12:22:04;0.90;99.90
19920;DHT22;10122;50.074;19.920;2024-01-11T12:24:30;0.90;99.90
19920;DHT22;10122;50.074;19.920;2024-01-11T12:26:57;0.90;99.90
19920;DHT22;10122;50.074;19.920;2024-01-11T12:29:28;0.90;99.90
19920;DHT22;10122;50.074;19.920;2024-01-11T12:31:54;0.90;99.90
19920;DHT22;10122;50.074;19.920;2024-01-11T12:34:21;0.90;99.90
19920;DHT22;10122;50.074;19.920;2024-01-11T12:36:47;0.90;99.90
19920;DHT22;10122;50.074;19.920;2024-01-11T12:39:12;1.00;99.90
19920;DHT22;10122;50.074;19.920;2024-01-11T12:41:39;1.00;99.90
19920;DHT22;10122;50.074;19.920;2024-01-11T12:44:05;1.00;99.90
19920;DHT22;10122;50.074;19.920;2024-01-11T12:46:31;1.00;99.90
19920;DHT22;10122;50.074;19.920;2024-01-11T12:48:58;0.90;99.90
19920;DHT22;10122;50.074;19.920;2024-01-11T12:51:23;0.90;99.90
19920;DHT22;10122;50.074;19.920;2024-01-11T12:53:52;0.90;99.90
19920;DHT22;10122;50.074;19.920;2024-01-11T12:56:19;0.90;99.90
19920;DHT22;10122;50.074;19.920;2024-01-11T12:58:46;0.90;99.90
19920;DHT22;10122;50.074;19.920;2024-01-11T13:01:12;0.90;99.90
19920;DHT22;10122;50.074;19.920;2024-01-11T13:03:44;0.90;99.90
19920;DHT22;10122;50.074;19.920;2024-01-11T13:06:11;0.90;99.90
19920;DHT22;10122;50.074;19.920;2024-01-11T13:08:37;0.90;99.90
19920;DHT22;10122;50.074;19.920;2024-01-11T13:11:06;0.90;99.90
19920;DHT22;10122;50.074;19.920;2024-01-11T13:13:35;1.00;99.90
19920;DHT22;10122;50.074;19.920;2024-01-11T13:16:04;1.00;99.90
19920;DHT22;10122;50.074;19.920;2024-01-11T13:18:36;1.10;99.90
19920;DHT22;10122;50.074;19.920;2024-01-11T13:21:02;1.10;99.90
19920;DHT22;10122;50.074;19.920;2024-01-11T13:23:28;1.10;99.90
19920;DHT22;10122;50.074;19.920;2024-01-11T13:25:54;1.00;99.90
19920;DHT22;10122;50.074;19.920;2024-01-11T13:28:19;1.00;99.90
19920;DHT22;10122;50.074;19.920;2024-01-11T13:30:46;0.90;99.90
19920;DHT22;10122;50.074;19.920;2024-01-11T13:33:12;0.80;99.90
19920;DHT22;10122;50.074;19.920;2024-01-11T13:35:39;0.80;99.90
19920;DHT22;10122;50.074;19.920;2024-01-11T13:38:05;0.80;99.90
19920;DHT22;10122;50.074;19.920;2024-01-11T13:40:32;0.80;99.90
19920;DHT22;10122;50.074;19.920;2024-01-11T13:42:58;0.80;99.90
19920;DHT22;10122;50.074;19.920;2024-01-11T13:45:25;0.80;99.90
19920;DHT22;10122;50.074;19.920;2024-01-11T13:47:51;0.70;99.90
19920;DHT22;10122;50.074;19.920;2024-01-11T13:50:18;0.70;99.90
19920;DHT22;10122;50.074;19.920;2024-01-11T13:52:44;0.70;99.90
19920;DHT22;10122;50.074;19.920;2024-01-11T13:55:11;0.70;99.90
19920;DHT22;10122;50.074;19.920;2024-01-11T13:57:37;0.70;99.90
19920;DHT22;10122;50.074;19.920;2024-01-11T14:00:04;0.70;99.90
19920;DHT22;10122;50.074;19.920;2024-01-11T14:02:30;0.70;99.90
19920;DHT22;10122;50.074;19.920;2024-01-11T14:04:56;0.60;99.90
19920;DHT22;10122;50.074;19.920;2024-01-11T14:07:22;0.60;99.90
19920;DHT22;10122;50.074;19.920;2024-01-11T14:09:47;0.50;99.90
19920;DHT22;10122;50.074;19.920;2024-01-11T14:12:13;0.50;99.90
19920;DHT22;10122;50.074;19.920;2024-01-11T14:14:41;0.50;99.90
19920;DHT22;10122;50.074;19.920;2024-01-11T14:17:08;0.50;99.90
19920;DHT22;10122;50.074;19.920;2024-01-11T14:19:33;0.50;99.90
19920;DHT22;10122;50.074;19.920;2024-01-11T14:21:59;0.50;99.90
19920;DHT22;10122;50.074;19.920;2024-01-11T14:24:25;0.50;99.90
19920;DHT22;10122;50.074;19.920;2024-01-11T14:26:51;0.50;99.90
19920;DHT22;10122;50.074;19.920;2024-01-11T14:29:17;0.40;99.90
19920;DHT22;10122;50.074;19.920;2024-01-11T14:31:42;0.40;99.90
19920;DHT22;10122;50.074;19.920;2024-01-11T14:34:09;0.40;99.90
19920;DHT22;10122;50.074;19.920;2024-01-11T14:36:36;0.40;99.90
19920;DHT22;10122;50.074;19.920;2024-01-11T14:39:02;0.40;99.90
19920;DHT22;10122;50.074;19.920;2024-01-11T14:41:30;0.30;99.90
19920;DHT22;10122;50.074;19.920;2024-01-11T14:43:56;0.30;99.90
19920;DHT22;10122;50.074;19.920;2024-01-11T14:46:22;0.30;99.90
19920;DHT22;10122;50.074;19.920;2024-01-11T14:48:48;0.30;99.90
19920;DHT22;10122;50.074;19.920;2024-01-11T14:51:14;0.30;99.90
19920;DHT22;10122;50.074;19.920;2024-01-11T14:53:41;0.20;99.90
19920;DHT22;10122;50.074;19.920;2024-01-11T14:56:07;0.20;99.90
19920;DHT22;10122;50.074;19.920;2024-01-11T14:58:32;0.20;99.90
19920;DHT22;10122;50.074;19.920;2024-01-11T15:00:58;0.10;99.90
19920;DHT22;10122;50.074;19.920;2024-01-11T15:03:24;0.10;99.90
19920;DHT22;10122;50.074;19.920;2024-01-11T15:05:53;0.10;99.90
19920;DHT22;10122;50.074;19.920;2024-01-11T15:08:19;0.10;99.90
19920;DHT22;10122;50.074;19.920;2024-01-11T15:10:46;0.10;99.90
19920;DHT22;10122;50.074;19.920;2024-01-11T15:13:12;0.10;99.90
19920;DHT22;10122;50.074;19.920;2024-01-11T15:15:38;0.10;99.90
19920;DHT22;10122;50.074;19.920;2024-01-11T15:18:04;0.10;99.90